createdAt,value
2022-10-05T00:01:03.885Z,100934.75
2022-10-05T00:03:47.959Z,100929.97
2022-10-05T00:06:32.053Z,100976.63
2022-10-05T00:09:20.898Z,100978.59
2022-10-05T00:12:14.380Z,100969.13
2022-10-05T00:15:01.977Z,100946.91
2022-10-05T00:17:49.044Z,100996.19
2022-10-05T00:20:32.970Z,100993.22
2022-10-05T00:23:20.608Z,100987.28
2022-10-05T00:26:13.229Z,100986.09
2022-10-05T00:28:57.351Z,100967.47
2022-10-05T00:31:41.413Z,100994.63
2022-10-05T00:34:26.993Z,100942.25
2022-10-05T00:37:11.141Z,100992.75
2022-10-05T00:39:55.690Z,100973.03
2022-10-05T00:42:52.107Z,101004.59
2022-10-05T00:45:43.662Z,100966.31
2022-10-05T00:48:33.844Z,100969.72
2022-10-05T00:51:37.495Z,100996.84
2022-10-05T00:54:30.762Z,101007.19
2022-10-05T00:57:31.799Z,101008.03
2022-10-05T01:00:18.759Z,100959.00
2022-10-05T01:03:11.213Z,101009.31
2022-10-05T01:06:06.362Z,101012.94
2022-10-05T01:08:59.383Z,101013.31
2022-10-05T01:11:50.903Z,100967.00
2022-10-05T01:14:44.862Z,101009.41
2022-10-05T01:17:38.367Z,101018.41
2022-10-05T01:20:35.687Z,101019.59
2022-10-05T01:23:55.664Z,101020.13
2022-10-05T01:27:11.893Z,101018.47
2022-10-05T01:30:07.725Z,101019.34
2022-10-05T01:33:00.489Z,101022.41
2022-10-05T01:35:54.268Z,101022.41
2022-10-05T01:38:47.996Z,101025.88
2022-10-05T01:41:39.880Z,101014.91
2022-10-05T01:44:30.107Z,101027.75
2022-10-05T01:47:23.161Z,101033.66
2022-10-05T01:50:14.253Z,101029.66
2022-10-05T01:53:06.791Z,101022.06
2022-10-05T01:55:56.192Z,101049.13
2022-10-05T01:58:50.030Z,101044.75
2022-10-05T02:01:40.399Z,101046.09
2022-10-05T02:05:00.541Z,101019.09
2022-10-05T02:07:41.532Z,101036.06
2022-10-05T02:10:30.054Z,101038.78
2022-10-05T02:13:18.516Z,101048.13
2022-10-05T02:16:06.387Z,101049.00
2022-10-05T02:18:53.875Z,101053.59
2022-10-05T02:21:39.792Z,101065.91
2022-10-05T02:24:28.403Z,101065.09
2022-10-05T02:27:15.448Z,101060.31
2022-10-05T02:30:04.184Z,101059.88
2022-10-05T02:32:57.638Z,101062.75
2022-10-05T02:35:41.428Z,101060.34
2022-10-05T02:38:36.904Z,101058.38
2022-10-05T02:41:33.782Z,101063.22
2022-10-05T02:44:29.280Z,101077.56
2022-10-05T02:47:20.724Z,101073.84
2022-10-05T02:50:16.189Z,101078.50
2022-10-05T02:53:14.744Z,101074.75
2022-10-05T02:56:13.232Z,101088.09
2022-10-05T02:59:06.375Z,101079.00
2022-10-05T03:01:53.728Z,101072.97
2022-10-05T03:04:42.700Z,101074.06
2022-10-05T03:07:33.703Z,101089.63
2022-10-05T03:10:29.613Z,101104.59
2022-10-05T03:13:27.331Z,101102.66
2022-10-05T03:16:22.008Z,101112.03
2022-10-05T03:19:20.984Z,101116.84
2022-10-05T03:22:13.036Z,101115.19
2022-10-05T03:25:19.450Z,101121.13
2022-10-05T03:28:11.457Z,101117.78
2022-10-05T03:31:03.723Z,101126.69
2022-10-05T03:33:57.157Z,101126.00
2022-10-05T03:36:48.437Z,101131.28
2022-10-05T03:39:38.142Z,101133.72
2022-10-05T03:42:30.894Z,101116.75
2022-10-05T03:45:28.443Z,101144.72
2022-10-05T03:48:16.801Z,101135.66
2022-10-05T03:51:09.224Z,101141.34
2022-10-05T03:53:59.576Z,101134.31
2022-10-05T03:56:49.576Z,101152.50
2022-10-05T03:59:40.405Z,101148.91
2022-10-05T04:02:28.281Z,101143.84
2022-10-05T04:05:19.218Z,101155.13
2022-10-05T04:08:08.115Z,101150.63
2022-10-05T04:10:55.467Z,101109.94
2022-10-05T04:13:45.501Z,101148.66
2022-10-05T04:16:32.899Z,101153.78
2022-10-05T04:19:24.540Z,101149.84
2022-10-05T04:22:17.152Z,101155.28
2022-10-05T04:25:06.864Z,101179.25
2022-10-05T04:27:56.057Z,101187.22
2022-10-05T04:30:45.399Z,101159.72
2022-10-05T04:33:29.279Z,101190.31
2022-10-05T04:36:23.727Z,101181.22
2022-10-05T04:39:20.103Z,101189.47
2022-10-05T04:42:12.360Z,101187.25
2022-10-05T04:45:09.658Z,101207.94
2022-10-05T04:48:31.079Z,101204.31
2022-10-05T04:51:28.034Z,101214.09
2022-10-05T04:54:25.696Z,101225.59
2022-10-05T04:57:15.063Z,101217.28
2022-10-05T05:00:11.242Z,101232.09
2022-10-05T05:03:28.494Z,101225.00
2022-10-05T05:06:30.232Z,101227.19
2022-10-05T05:09:56.924Z,101232.50
2022-10-05T05:12:51.833Z,101238.38
2022-10-05T05:15:47.192Z,101236.38
2022-10-05T05:18:50.323Z,101244.84
2022-10-05T05:21:43.591Z,101247.59
2022-10-05T05:24:39.643Z,101233.50
2022-10-05T05:27:40.535Z,101263.94
2022-10-05T05:30:31.566Z,101240.03
2022-10-05T05:33:24.369Z,101264.22
2022-10-05T05:36:35.827Z,101229.06
2022-10-05T05:39:27.463Z,101287.22
2022-10-05T05:42:26.612Z,101277.84
2022-10-05T05:45:18.802Z,101240.44
2022-10-05T05:48:08.460Z,101266.28
2022-10-05T05:50:58.794Z,101289.78
2022-10-05T05:53:46.162Z,101293.06
2022-10-05T05:56:36.008Z,101301.28
2022-10-05T05:59:25.941Z,101301.56
2022-10-05T06:02:15.214Z,101308.50
2022-10-05T06:05:08.000Z,101307.22
2022-10-05T06:07:53.885Z,101310.44
2022-10-05T06:10:44.673Z,101315.94
2022-10-05T06:13:34.601Z,101307.25
2022-10-05T06:16:24.022Z,101321.44
2022-10-05T06:19:13.283Z,101314.41
2022-10-05T06:22:05.205Z,101321.97
2022-10-05T06:25:03.404Z,101319.84
2022-10-05T06:28:03.991Z,101319.16
2022-10-05T06:30:58.815Z,101317.50
2022-10-05T06:33:49.400Z,101322.00
2022-10-05T06:36:44.411Z,101317.97
2022-10-05T06:39:58.693Z,101321.28
2022-10-05T06:43:12.872Z,101311.34
2022-10-05T06:46:24.067Z,101330.03
2022-10-05T06:49:20.738Z,101328.97
2022-10-05T06:52:21.371Z,101319.56
2022-10-05T06:55:19.277Z,101324.50
2022-10-05T06:58:22.516Z,101323.63
2022-10-05T07:01:12.133Z,101312.81
2022-10-05T07:04:12.116Z,101321.88
2022-10-05T07:07:01.681Z,101332.88
2022-10-05T07:09:57.908Z,101275.78
2022-10-05T07:12:55.128Z,101322.88
2022-10-05T07:15:46.340Z,101327.78
2022-10-05T07:18:44.255Z,101338.75
2022-10-05T07:21:39.548Z,101307.56
2022-10-05T07:24:32.952Z,101345.25
2022-10-05T07:27:21.624Z,101348.41
2022-10-05T07:30:08.352Z,101337.25
2022-10-05T07:33:02.949Z,101351.19
2022-10-05T07:36:12.343Z,101353.38
2022-10-05T07:39:03.902Z,101345.09
2022-10-05T07:41:56.287Z,101338.09
2022-10-05T07:44:49.405Z,101341.25
2022-10-05T07:47:38.143Z,101339.38
2022-10-05T07:50:27.887Z,101345.88
2022-10-05T07:53:17.144Z,101349.25
2022-10-05T07:56:10.637Z,101329.38
2022-10-05T07:59:01.761Z,101329.91
2022-10-05T08:01:52.125Z,101348.31
2022-10-05T08:04:46.063Z,101348.53
2022-10-05T08:07:33.177Z,101349.91
2022-10-05T08:10:27.744Z,101315.78
2022-10-05T08:13:20.334Z,101313.50
2022-10-05T08:16:12.660Z,101345.78
2022-10-05T08:19:02.451Z,101329.00
2022-10-05T08:21:52.041Z,101343.16
2022-10-05T08:24:43.230Z,101324.88
2022-10-05T08:27:30.165Z,101343.81
2022-10-05T08:30:17.085Z,101341.69
2022-10-05T08:33:09.680Z,101340.66
2022-10-05T08:36:04.781Z,101337.72
2022-10-05T08:38:54.744Z,101333.66
2022-10-05T08:42:09.414Z,101335.53
2022-10-05T08:45:12.111Z,101333.91
2022-10-05T08:48:24.274Z,101314.75
2022-10-05T08:51:34.177Z,101323.69
2022-10-05T08:54:44.735Z,101338.97
2022-10-05T08:57:52.311Z,101332.94
2022-10-05T09:00:50.302Z,101324.72
2022-10-05T09:04:17.823Z,101337.91
2022-10-05T09:07:11.813Z,101291.09
2022-10-05T09:10:36.654Z,101317.84
2022-10-05T09:13:54.626Z,101328.16
2022-10-05T09:17:05.078Z,101334.22
2022-10-05T09:20:11.229Z,101333.66
2022-10-05T09:23:13.739Z,101338.06
2022-10-05T09:26:00.819Z,101331.47
2022-10-05T09:28:59.624Z,101317.69
2022-10-05T09:32:05.432Z,101344.78
2022-10-05T09:35:29.905Z,101337.84
2022-10-05T09:38:23.335Z,101336.34
2022-10-05T09:41:40.398Z,101339.69
2022-10-05T09:44:54.143Z,101354.91
2022-10-05T09:48:07.173Z,101352.03
2022-10-05T09:51:27.892Z,101338.88
2022-10-05T09:54:44.352Z,101338.69
2022-10-05T09:57:47.204Z,101343.72
2022-10-05T10:00:50.105Z,101331.53
2022-10-05T10:04:07.184Z,101325.66
2022-10-05T10:07:21.211Z,101322.34
2022-10-05T10:10:34.555Z,101324.75
2022-10-05T10:13:38.240Z,101322.63
2022-10-05T10:16:53.758Z,101329.50
2022-10-05T10:20:10.064Z,101333.72
2022-10-05T10:23:24.679Z,101322.78
2022-10-05T10:26:26.718Z,101306.34
2022-10-05T10:29:28.956Z,101308.34
2022-10-05T10:32:45.732Z,101317.03
2022-10-05T10:35:35.903Z,101304.13
2022-10-05T10:38:40.264Z,101302.81
2022-10-05T10:41:53.044Z,101309.88
2022-10-05T10:45:13.968Z,101306.22
2022-10-05T10:48:12.157Z,101295.44
2022-10-05T10:51:15.027Z,101293.56
2022-10-05T10:54:32.617Z,101257.94
2022-10-05T10:57:23.686Z,101293.50
2022-10-05T11:00:24.153Z,101279.69
2022-10-05T11:03:42.684Z,101288.38
2022-10-05T11:07:11.532Z,101291.88
2022-10-05T11:10:18.282Z,101215.72
2022-10-05T11:13:35.473Z,101291.41
2022-10-05T11:16:58.153Z,101287.69
2022-10-05T11:20:03.501Z,101278.28
2022-10-05T11:23:27.916Z,101265.91
2022-10-05T11:26:32.635Z,101227.19
2022-10-05T11:29:36.075Z,101255.13
2022-10-05T11:32:56.356Z,101257.31
2022-10-05T11:36:04.959Z,101257.66
2022-10-05T11:39:17.990Z,101219.50
2022-10-05T11:42:35.479Z,101236.38
2022-10-05T11:45:26.159Z,101259.03
2022-10-05T11:48:46.826Z,101257.84
2022-10-05T11:51:39.532Z,101224.56
2022-10-05T11:54:58.605Z,101215.41
2022-10-05T11:57:51.731Z,101244.13
2022-10-05T12:00:43.943Z,101252.94
2022-10-05T12:03:53.341Z,101260.16
2022-10-05T12:06:51.994Z,101223.34
2022-10-05T12:10:11.458Z,101217.19
2022-10-05T12:13:13.331Z,101214.81
2022-10-05T12:16:00.976Z,101256.16
2022-10-05T12:18:56.014Z,101234.25
2022-10-05T12:21:45.536Z,101233.28
2022-10-05T12:24:44.878Z,101237.56
2022-10-05T12:27:32.513Z,101246.09
2022-10-05T12:30:26.341Z,101253.91
2022-10-05T12:33:19.899Z,101241.75
2022-10-05T12:36:09.875Z,101222.84
2022-10-05T12:39:01.617Z,101255.16
2022-10-05T12:41:54.128Z,101244.13
2022-10-05T12:44:56.282Z,101258.28
2022-10-05T12:47:54.153Z,101252.34
2022-10-05T12:50:42.186Z,101251.84
2022-10-05T12:53:40.216Z,101254.41
2022-10-05T12:56:38.059Z,101250.66
2022-10-05T12:59:33.907Z,101258.53
2022-10-05T13:02:29.665Z,101249.75
2022-10-05T13:05:24.330Z,101253.13
2022-10-05T13:08:19.131Z,101261.91
2022-10-05T13:11:12.684Z,101272.31
2022-10-05T13:14:09.409Z,101262.88
2022-10-05T13:17:00.443Z,101246.69
2022-10-05T13:19:48.192Z,101264.50
2022-10-05T13:22:38.461Z,101264.75
2022-10-05T13:25:28.608Z,101261.72
2022-10-05T13:28:19.644Z,101248.06
2022-10-05T13:31:08.379Z,101153.59
2022-10-05T13:34:15.429Z,101250.28
2022-10-05T13:37:10.246Z,101223.41
2022-10-05T13:40:06.381Z,101240.13
2022-10-05T13:42:55.891Z,101122.75
2022-10-05T13:45:46.159Z,101244.53
2022-10-05T13:48:53.000Z,101247.00
2022-10-05T13:51:42.747Z,101249.03
2022-10-05T13:54:35.342Z,101257.53
2022-10-05T13:57:36.188Z,101239.50
2022-10-05T14:00:25.650Z,101247.75
2022-10-05T14:03:27.601Z,101246.81
2022-10-05T14:06:14.525Z,101259.09
2022-10-05T14:08:59.989Z,101262.91
2022-10-05T14:11:50.793Z,101255.81
2022-10-05T14:14:46.833Z,101256.53
2022-10-05T14:17:39.028Z,101229.66
2022-10-05T14:20:28.243Z,101231.66
2022-10-05T14:23:18.559Z,101272.38
2022-10-05T14:26:19.309Z,101284.06
2022-10-05T14:29:16.930Z,101291.22
2022-10-05T14:32:13.235Z,101235.53
2022-10-05T14:35:05.240Z,101252.25
2022-10-05T14:37:56.421Z,101276.03
2022-10-05T14:40:40.324Z,101264.88
2022-10-05T14:43:24.192Z,101279.53
2022-10-05T14:46:27.805Z,101281.59
2022-10-05T14:49:21.585Z,101281.13
2022-10-05T14:52:28.784Z,101271.69
2022-10-05T14:55:24.775Z,101291.81
2022-10-05T14:58:24.278Z,101285.44
2022-10-05T15:01:17.627Z,101260.41
2022-10-05T15:04:17.583Z,101302.44
2022-10-05T15:07:14.764Z,101301.19
2022-10-05T15:10:22.676Z,101301.41
2022-10-05T15:13:13.230Z,101307.41
2022-10-05T15:16:01.207Z,101286.56
2022-10-05T15:18:50.838Z,101322.50
2022-10-05T15:21:50.798Z,101324.50
2022-10-05T15:24:43.707Z,101314.81
2022-10-05T15:27:37.765Z,101329.03
2022-10-05T15:30:23.071Z,101314.25
2022-10-05T15:33:16.172Z,101323.31
2022-10-05T15:36:10.884Z,101307.47
2022-10-05T15:39:03.597Z,101307.88
2022-10-05T15:42:01.066Z,101343.31
2022-10-05T15:45:01.694Z,101351.72
2022-10-05T15:47:53.686Z,101352.72
2022-10-05T15:50:45.684Z,101355.19
2022-10-05T15:53:40.569Z,101361.31
2022-10-05T15:56:31.361Z,101364.31
2022-10-05T15:59:25.316Z,101358.59
2022-10-05T16:02:19.999Z,101355.38
2022-10-05T16:05:16.154Z,101363.13
2022-10-05T16:08:17.453Z,101328.44
2022-10-05T16:11:02.317Z,101341.56
2022-10-05T16:13:53.645Z,101361.63
2022-10-05T16:16:50.723Z,101370.06
2022-10-05T16:19:41.014Z,101360.88
2022-10-05T16:22:33.887Z,101365.28
2022-10-05T16:25:23.497Z,101379.94
2022-10-05T16:28:19.694Z,101370.88
2022-10-05T16:31:13.430Z,101380.75
2022-10-05T16:34:06.715Z,101381.19
2022-10-05T16:37:00.023Z,101366.97
2022-10-05T16:39:55.116Z,101385.91
2022-10-05T16:42:50.959Z,101391.66
2022-10-05T16:45:47.471Z,101390.44
2022-10-05T16:48:36.394Z,101358.97
2022-10-05T16:51:32.627Z,101400.88
2022-10-05T16:54:21.426Z,101389.25
2022-10-05T16:57:12.753Z,101402.00
2022-10-05T17:00:16.563Z,101405.44
2022-10-05T17:03:19.543Z,101400.00
2022-10-05T17:06:37.154Z,101409.03
2022-10-05T17:09:48.476Z,101385.03
2022-10-05T17:12:45.598Z,101414.81
2022-10-05T17:15:38.182Z,101414.50
2022-10-05T17:18:29.939Z,101410.00
2022-10-05T17:21:19.442Z,101410.63
2022-10-05T17:24:21.602Z,101419.66
2022-10-05T17:27:20.527Z,101417.41
2022-10-05T17:30:41.951Z,101427.75
2022-10-05T17:33:29.184Z,101426.97
2022-10-05T17:36:19.418Z,101390.09
2022-10-05T17:39:15.718Z,101430.50
2022-10-05T17:42:32.545Z,101441.00
2022-10-05T17:45:52.895Z,101434.63
2022-10-05T17:48:43.318Z,101449.56
2022-10-05T17:52:16.995Z,101451.16
2022-10-05T17:55:27.438Z,101454.09
2022-10-05T17:59:02.077Z,101456.59
2022-10-05T18:02:15.790Z,101459.28
2022-10-05T18:05:06.363Z,101465.19
2022-10-05T18:08:31.770Z,101464.63
2022-10-05T18:11:37.928Z,101440.19
2022-10-05T18:14:24.902Z,101463.59
2022-10-05T18:17:13.919Z,101457.38
2022-10-05T18:20:14.866Z,101477.28
2022-10-05T18:23:35.696Z,101456.41
2022-10-05T18:26:31.867Z,101471.34
2022-10-05T18:29:49.781Z,101469.69
2022-10-05T18:32:55.420Z,101474.69
2022-10-05T18:35:53.553Z,101456.91
2022-10-05T18:38:48.446Z,101466.22
2022-10-05T18:41:54.336Z,101476.19
2022-10-05T18:44:42.188Z,101472.97
2022-10-05T18:47:35.595Z,101427.00
2022-10-05T18:50:28.119Z,101439.91
2022-10-05T18:53:23.269Z,101478.72
2022-10-05T18:56:18.880Z,101475.28
2022-10-05T18:59:20.139Z,101448.00
2022-10-05T19:02:13.740Z,101477.19
2022-10-05T19:05:18.949Z,101469.69
2022-10-05T19:08:26.801Z,101471.63
2022-10-05T19:11:19.147Z,101468.91
2022-10-05T19:14:12.280Z,101464.31
2022-10-05T19:17:10.146Z,101464.06
2022-10-05T19:20:18.120Z,101467.66
2022-10-05T19:23:27.520Z,101469.38
2022-10-05T19:26:16.575Z,101466.13
2022-10-05T19:29:13.411Z,101474.91
2022-10-05T19:32:03.656Z,101458.31
2022-10-05T19:35:05.529Z,101424.69
2022-10-05T19:37:57.525Z,101464.63
2022-10-05T19:40:50.276Z,101466.56
2022-10-05T19:43:55.504Z,101462.50
2022-10-05T19:46:57.055Z,101468.03
2022-10-05T19:49:50.138Z,101465.19
2022-10-05T19:52:47.524Z,101467.06
2022-10-05T19:55:37.087Z,101455.97
2022-10-05T19:58:24.611Z,101444.84
2022-10-05T20:01:08.531Z,101462.81
2022-10-05T20:03:53.383Z,101465.81
2022-10-05T20:06:39.575Z,101470.81
2022-10-05T20:09:24.889Z,101463.09
2022-10-05T20:12:08.662Z,101462.44
2022-10-05T20:15:35.606Z,101461.22
2022-10-05T20:19:05.963Z,101470.28
2022-10-05T20:21:51.966Z,101472.47
2022-10-05T20:24:50.971Z,101460.34
2022-10-05T20:27:49.167Z,101483.84
2022-10-05T20:30:34.284Z,101431.69
2022-10-05T20:33:18.228Z,101469.66
2022-10-05T20:36:03.781Z,101441.53
2022-10-05T20:38:47.602Z,101478.38
2022-10-05T20:41:32.200Z,101479.56
2022-10-05T20:44:16.278Z,101476.94
2022-10-05T20:47:01.626Z,101482.03
2022-10-05T20:49:45.535Z,101484.06
2022-10-05T20:52:29.467Z,101445.31
2022-10-05T20:55:13.590Z,101485.84
2022-10-05T20:57:57.518Z,101484.88
2022-10-05T21:00:59.075Z,101475.75
2022-10-05T21:03:44.511Z,101465.84
2022-10-05T21:06:29.654Z,101466.41
2022-10-05T21:09:15.177Z,101475.19
2022-10-05T21:11:59.418Z,101451.59
2022-10-05T21:14:43.222Z,101469.72
2022-10-05T21:17:26.903Z,101466.94
2022-10-05T21:20:13.034Z,101446.81
2022-10-05T21:22:56.687Z,101470.72
2022-10-05T21:25:40.351Z,101475.59
2022-10-05T21:28:24.229Z,101464.97
2022-10-05T21:31:09.556Z,101464.44
2022-10-05T21:33:53.687Z,101475.53
2022-10-05T21:36:39.159Z,101451.25
2022-10-05T21:39:23.679Z,101469.16
2022-10-05T21:42:07.480Z,101467.44
2022-10-05T21:44:51.196Z,101470.03
2022-10-05T21:47:36.004Z,101462.38
2022-10-05T21:50:19.861Z,101464.34
2022-10-05T21:53:08.617Z,101442.41
2022-10-05T21:55:53.292Z,101419.44
2022-10-05T21:58:37.829Z,101465.69
2022-10-05T22:01:22.917Z,101463.50
2022-10-05T22:04:07.840Z,101459.66
2022-10-05T22:06:51.569Z,101456.44
2022-10-05T22:09:36.664Z,101451.75
2022-10-05T22:12:21.044Z,101452.41
2022-10-05T22:15:06.380Z,101425.88
2022-10-05T22:17:50.394Z,101435.47
2022-10-05T22:20:35.873Z,101432.50
2022-10-05T22:23:19.856Z,101434.63
2022-10-05T22:26:06.528Z,101431.53
2022-10-05T22:28:55.144Z,101423.63
2022-10-05T22:31:39.685Z,101428.41
2022-10-05T22:34:23.757Z,101428.94
2022-10-05T22:37:08.023Z,101391.13
2022-10-05T22:39:51.722Z,101402.09
2022-10-05T22:42:36.969Z,101421.63
2022-10-05T22:45:20.655Z,101264.66
2022-10-05T22:48:04.473Z,101418.72
2022-10-05T22:50:49.308Z,101423.94
2022-10-05T22:53:33.095Z,101413.31
2022-10-05T22:56:18.330Z,101400.69
2022-10-05T22:59:03.487Z,101422.69
2022-10-05T23:01:47.328Z,101425.25
2022-10-05T23:04:31.265Z,101429.59
2022-10-05T23:07:15.119Z,101427.63
2022-10-05T23:09:59.200Z,101425.50
2022-10-05T23:12:43.098Z,101424.91
2022-10-05T23:15:28.531Z,101387.75
2022-10-05T23:18:13.066Z,101407.28
2022-10-05T23:20:57.516Z,101391.88
2022-10-05T23:23:47.396Z,101432.22
2022-10-05T23:26:32.233Z,101431.13
2022-10-05T23:29:16.020Z,101392.00
2022-10-05T23:32:01.175Z,101405.88
2022-10-05T23:34:44.876Z,101426.78
2022-10-05T23:37:29.198Z,101384.41
2022-10-05T23:40:14.743Z,101413.19
2022-10-05T23:42:58.489Z,101409.13
2022-10-05T23:45:45.439Z,101416.53
2022-10-05T23:48:31.518Z,101388.53
2022-10-05T23:51:16.244Z,101413.06
2022-10-05T23:54:00.059Z,101416.03
2022-10-05T23:56:43.884Z,101410.78
2022-10-05T23:59:27.727Z,101400.38
